createdAt,value
2023-05-06T00:00:10.676Z,51564.25
2023-05-06T00:02:44.460Z,51568.25
2023-05-06T00:05:13.943Z,51600.34
2023-05-06T00:07:43.722Z,51592.31
2023-05-06T00:10:12.155Z,51612.38
2023-05-06T00:12:40.871Z,51572.25
2023-05-06T00:15:10.336Z,51632.44
2023-05-06T00:17:38.997Z,51642.47
2023-05-06T00:20:09.707Z,51624.41
2023-05-06T00:22:38.054Z,51594.31
2023-05-06T00:25:08.656Z,51608.38
2023-05-06T00:27:37.171Z,51644.47
2023-05-06T00:30:06.680Z,51636.44
2023-05-06T00:32:35.257Z,51654.50
2023-05-06T00:35:04.281Z,51654.50
2023-05-06T00:37:32.848Z,51680.59
2023-05-06T00:40:01.728Z,51622.41
2023-05-06T00:42:31.695Z,51664.53
2023-05-06T00:45:00.313Z,51626.44
2023-05-06T00:47:28.862Z,51618.41
2023-05-06T00:49:57.377Z,51612.38
2023-05-06T00:52:26.099Z,51646.47
2023-05-06T00:54:54.954Z,51644.47
2023-05-06T00:57:24.524Z,51630.44
2023-05-06T00:59:55.192Z,51648.50
2023-05-06T01:02:26.450Z,51620.41
2023-05-06T01:05:03.326Z,51654.50
2023-05-06T01:07:40.657Z,51666.53
2023-05-06T01:10:18.652Z,51638.47
2023-05-06T01:12:55.255Z,51654.50
2023-05-06T01:15:33.943Z,51662.53
2023-05-06T01:18:09.024Z,51660.53
2023-05-06T01:20:38.448Z,51664.53
2023-05-06T01:23:13.171Z,51684.59
2023-05-06T01:25:42.224Z,51686.59
2023-05-06T01:28:12.191Z,51692.63
2023-05-06T01:30:47.255Z,51642.47
2023-05-06T01:33:20.135Z,51678.59
2023-05-06T01:35:56.039Z,51662.53
2023-05-06T01:38:35.825Z,51658.53
2023-05-06T01:41:05.845Z,51670.56
2023-05-06T01:43:41.466Z,51652.50
2023-05-06T01:46:14.605Z,51692.63
2023-05-06T01:48:43.975Z,51630.44
2023-05-06T01:51:12.362Z,51698.66
2023-05-06T01:53:42.322Z,51662.53
2023-05-06T01:56:11.741Z,51678.59
2023-05-06T01:58:40.435Z,51648.50
2023-05-06T02:01:08.786Z,51678.59
2023-05-06T02:03:37.319Z,51722.72
2023-05-06T02:06:05.969Z,51648.50
2023-05-06T02:08:39.726Z,51654.50
2023-05-06T02:11:10.495Z,51674.56
2023-05-06T02:13:39.347Z,51658.53
2023-05-06T02:16:09.562Z,51698.66
2023-05-06T02:18:38.649Z,51700.66
2023-05-06T02:21:07.050Z,51688.63
2023-05-06T02:23:35.702Z,51682.59
2023-05-06T02:26:04.329Z,51694.63
2023-05-06T02:28:36.015Z,51718.69
2023-05-06T02:31:04.398Z,51676.56
2023-05-06T02:33:33.019Z,51680.59
2023-05-06T02:36:01.406Z,51688.63
2023-05-06T02:38:30.045Z,51686.59
2023-05-06T02:40:58.547Z,51716.69
2023-05-06T02:43:28.203Z,51656.50
2023-05-06T02:45:58.191Z,51696.63
2023-05-06T02:48:27.663Z,51704.66
2023-05-06T02:50:56.002Z,51672.56
2023-05-06T02:53:24.357Z,51704.66
2023-05-06T02:55:52.696Z,51684.59
2023-05-06T02:58:21.155Z,51696.63
2023-05-06T03:00:49.560Z,51696.63
2023-05-06T03:03:19.585Z,51702.66
2023-05-06T03:05:47.955Z,51698.66
2023-05-06T03:08:16.764Z,51692.63
2023-05-06T03:10:46.725Z,51704.66
2023-05-06T03:13:17.759Z,51686.59
2023-05-06T03:15:46.188Z,51660.53
2023-05-06T03:18:14.546Z,51724.72
2023-05-06T03:20:44.389Z,51702.66
2023-05-06T03:23:13.242Z,51710.69
2023-05-06T03:25:41.675Z,51716.69
2023-05-06T03:28:10.370Z,51750.81
2023-05-06T03:30:39.503Z,51732.75
2023-05-06T03:33:09.708Z,51718.69
2023-05-06T03:35:38.156Z,51716.69
2023-05-06T03:38:08.027Z,51742.78
2023-05-06T03:40:44.056Z,51732.75
2023-05-06T03:43:13.577Z,51760.84
2023-05-06T03:45:42.924Z,51772.88
2023-05-06T03:48:11.694Z,51720.72
2023-05-06T03:50:44.144Z,51732.75
2023-05-06T03:53:15.364Z,51706.66
2023-05-06T03:55:46.397Z,51696.63
2023-05-06T03:58:15.395Z,51736.75
2023-05-06T04:00:46.075Z,51720.72
2023-05-06T04:03:15.281Z,51732.75
2023-05-06T04:06:00.048Z,51680.59
2023-05-06T04:08:29.977Z,51728.72
2023-05-06T04:10:58.880Z,51732.75
2023-05-06T04:13:29.936Z,51712.69
2023-05-06T04:16:09.648Z,51684.59
2023-05-06T04:18:43.814Z,51714.69
2023-05-06T04:21:15.211Z,51722.72
2023-05-06T04:24:05.913Z,51696.63
2023-05-06T04:26:38.876Z,51708.66
2023-05-06T04:29:07.825Z,51708.66
2023-05-06T04:31:48.149Z,51742.78
2023-05-06T04:34:16.906Z,51712.69
2023-05-06T04:36:47.577Z,51696.63
2023-05-06T04:39:36.604Z,51704.66
2023-05-06T04:42:05.484Z,51724.72
2023-05-06T04:44:42.154Z,51674.56
2023-05-06T04:47:19.294Z,51700.66
2023-05-06T04:49:55.939Z,51672.56
2023-05-06T04:52:25.321Z,51706.66
2023-05-06T04:54:55.061Z,51656.50
2023-05-06T04:57:25.155Z,51684.59
2023-05-06T05:00:16.377Z,51684.59
2023-05-06T05:02:45.070Z,51664.53
2023-05-06T05:05:19.157Z,51676.56
2023-05-06T05:07:55.866Z,51652.50
2023-05-06T05:10:27.369Z,51644.47
2023-05-06T05:12:56.243Z,51662.53
2023-05-06T05:15:41.708Z,51676.56
2023-05-06T05:18:10.618Z,51686.59
2023-05-06T05:20:41.906Z,51628.44
2023-05-06T05:23:19.747Z,51664.53
2023-05-06T05:25:49.879Z,51648.50
2023-05-06T05:28:18.887Z,51640.47
2023-05-06T05:30:48.658Z,51612.38
2023-05-06T05:33:17.152Z,51574.28
2023-05-06T05:35:54.412Z,51592.31
2023-05-06T05:38:23.438Z,51552.19
2023-05-06T05:40:53.838Z,51566.25
2023-05-06T05:43:25.855Z,51564.25
2023-05-06T05:46:05.365Z,51522.13
2023-05-06T05:48:35.155Z,51502.06
2023-05-06T05:51:05.819Z,51504.06
2023-05-06T05:53:34.986Z,51439.88
2023-05-06T05:56:31.056Z,51335.56
2023-05-06T05:59:00.253Z,51295.44
2023-05-06T06:01:30.399Z,51299.44
2023-05-06T06:04:19.267Z,51287.41
2023-05-06T06:06:47.771Z,51265.34
2023-05-06T06:09:17.174Z,51217.22
2023-05-06T06:11:47.231Z,51221.22
2023-05-06T06:14:15.862Z,51165.06
2023-05-06T06:16:46.693Z,51132.97
2023-05-06T06:19:15.716Z,51173.09
2023-05-06T06:21:45.220Z,51104.88
2023-05-06T06:24:22.600Z,51143.00
2023-05-06T06:26:53.027Z,51120.94
2023-05-06T06:29:21.431Z,51084.81
2023-05-06T06:31:49.972Z,51132.97
2023-05-06T06:34:18.568Z,51098.88
2023-05-06T06:36:46.976Z,51094.84
2023-05-06T06:39:15.617Z,51082.81
2023-05-06T06:41:44.105Z,51088.84
2023-05-06T06:44:13.746Z,51092.84
2023-05-06T06:46:42.815Z,51110.91
2023-05-06T06:49:36.547Z,51086.84
2023-05-06T06:52:05.918Z,51088.84
2023-05-06T06:54:34.280Z,51070.78
2023-05-06T06:57:03.381Z,51056.75
2023-05-06T06:59:33.525Z,51002.59
2023-05-06T07:02:01.941Z,51030.66
2023-05-06T07:04:31.496Z,50988.56
2023-05-06T07:09:42.434Z,51026.66
2023-05-06T07:12:11.106Z,50974.50
2023-05-06T07:14:41.377Z,50980.53
2023-05-06T07:17:22.207Z,50946.44
2023-05-06T07:19:50.683Z,50950.44
2023-05-06T07:22:19.368Z,51000.59
2023-05-06T07:24:47.747Z,50966.50
2023-05-06T07:29:59.886Z,50986.53
2023-05-06T07:32:28.306Z,50954.47
2023-05-06T07:34:56.636Z,50982.53
2023-05-06T07:37:34.753Z,50952.44
2023-05-06T07:40:03.238Z,50936.41
2023-05-06T07:42:31.887Z,50918.34
2023-05-06T07:45:01.618Z,50922.38
2023-05-06T07:47:32.227Z,50956.47
2023-05-06T07:50:00.868Z,51016.63
2023-05-06T07:52:29.246Z,51042.72
2023-05-06T07:54:57.767Z,50994.56
2023-05-06T07:57:26.157Z,51000.59
2023-05-06T07:59:54.587Z,50986.53
2023-05-06T08:02:24.320Z,51042.72
2023-05-06T08:04:52.773Z,50956.47
2023-05-06T08:07:21.147Z,50902.31
2023-05-06T08:09:49.563Z,50870.22
2023-05-06T08:12:17.913Z,50880.25
2023-05-06T08:14:46.579Z,50830.09
2023-05-06T08:17:15.059Z,50846.16
2023-05-06T08:19:44.840Z,50884.25
2023-05-06T08:22:14.759Z,50854.16
2023-05-06T08:24:43.288Z,50892.28
2023-05-06T08:27:12.021Z,50868.22
2023-05-06T08:29:40.424Z,50864.19
2023-05-06T08:32:08.827Z,50888.25
2023-05-06T08:34:37.797Z,51066.78
2023-05-06T08:37:08.219Z,50896.28
2023-05-06T08:39:36.760Z,50860.19
2023-05-06T08:42:06.594Z,50874.22
2023-05-06T08:44:34.939Z,50876.22
2023-05-06T08:47:03.418Z,50990.56
2023-05-06T08:49:35.213Z,50994.56
2023-05-06T08:52:06.600Z,51006.59
2023-05-06T08:54:36.995Z,50996.56
2023-05-06T08:57:06.778Z,51064.78
2023-05-06T08:59:39.148Z,51044.72
2023-05-06T09:02:08.447Z,51046.72
2023-05-06T09:04:38.148Z,51070.78
2023-05-06T09:07:06.570Z,51044.72
2023-05-06T09:09:36.693Z,51062.75
2023-05-06T09:12:23.456Z,51080.81
2023-05-06T09:14:52.038Z,51118.94
2023-05-06T09:17:24.100Z,51114.91
2023-05-06T09:19:53.309Z,51138.97
2023-05-06T09:22:22.693Z,51078.81
2023-05-06T09:24:56.602Z,51084.81
2023-05-06T09:27:26.457Z,51114.91
2023-05-06T09:30:44.615Z,51098.88
2023-05-06T09:33:13.311Z,51112.91
2023-05-06T09:35:53.912Z,51050.72
2023-05-06T09:38:22.321Z,51022.66
2023-05-06T09:40:52.706Z,51042.72
2023-05-06T09:43:21.604Z,51010.63
2023-05-06T09:45:50.109Z,51026.66
2023-05-06T09:48:30.211Z,51008.59
2023-05-06T09:51:00.700Z,51038.69
2023-05-06T09:53:31.782Z,51002.59
2023-05-06T09:56:09.843Z,51014.63
2023-05-06T09:58:38.919Z,51038.69
2023-05-06T10:01:08.986Z,51030.66
2023-05-06T10:03:38.214Z,51014.63
2023-05-06T10:06:17.921Z,51010.63
2023-05-06T10:08:47.810Z,51000.59
2023-05-06T10:11:19.098Z,51042.72
2023-05-06T10:13:47.921Z,51032.69
2023-05-06T10:16:25.502Z,50906.31
2023-05-06T10:18:56.418Z,50916.34
2023-05-06T10:21:28.646Z,50890.28
2023-05-06T10:24:18.526Z,50916.34
2023-05-06T10:26:48.872Z,50914.34
2023-05-06T10:29:18.542Z,50830.09
2023-05-06T10:31:56.707Z,50777.97
2023-05-06T10:34:33.040Z,50878.25
2023-05-06T10:37:02.125Z,50906.31
2023-05-06T10:39:30.733Z,50966.50
2023-05-06T10:42:07.513Z,50898.28
2023-05-06T10:45:00.503Z,50731.81
2023-05-06T10:47:29.202Z,50667.66
2023-05-06T10:50:20.908Z,50794.00
2023-05-06T10:52:52.804Z,50942.41
2023-05-06T10:55:29.890Z,50934.41
2023-05-06T10:58:17.267Z,51030.66
2023-05-06T11:00:54.478Z,51044.72
2023-05-06T11:03:27.853Z,51128.94
2023-05-06T11:06:01.516Z,51110.91
2023-05-06T11:08:30.068Z,51096.88
2023-05-06T11:10:58.496Z,51118.94
2023-05-06T11:13:29.817Z,51122.94
2023-05-06T11:16:00.189Z,51014.63
2023-05-06T11:18:45.070Z,50962.47
2023-05-06T11:21:41.596Z,50928.38
2023-05-06T11:24:14.263Z,50798.00
2023-05-06T11:26:44.015Z,50832.09
2023-05-06T11:29:16.621Z,50856.19
2023-05-06T11:31:47.218Z,50970.50
2023-05-06T11:34:22.840Z,51052.72
2023-05-06T11:36:54.887Z,51042.72
2023-05-06T11:39:23.179Z,51118.94
2023-05-06T11:42:02.850Z,51151.03
2023-05-06T11:44:34.325Z,51145.00
2023-05-06T11:47:05.814Z,51163.06
2023-05-06T11:49:43.372Z,51159.03
2023-05-06T11:52:14.873Z,51169.06
2023-05-06T11:54:43.764Z,51211.19
2023-05-06T11:57:12.471Z,51209.19
2023-05-06T11:59:42.603Z,51215.22
2023-05-06T12:02:21.271Z,51207.19
2023-05-06T12:04:51.195Z,51203.16
2023-05-06T12:07:19.791Z,51215.22
2023-05-06T12:09:50.460Z,51219.22
2023-05-06T12:12:27.353Z,51237.28
2023-05-06T12:14:57.390Z,51227.25
2023-05-06T12:17:26.129Z,51291.44
2023-05-06T12:19:54.728Z,51247.28
2023-05-06T12:22:33.930Z,51259.34
2023-05-06T12:25:14.049Z,51227.25
2023-05-06T12:27:42.503Z,51301.47
2023-05-06T12:30:29.978Z,51247.28
2023-05-06T12:32:59.807Z,51265.34
2023-05-06T12:35:29.189Z,51271.38
2023-05-06T12:37:58.576Z,51253.31
2023-05-06T12:40:27.330Z,51247.28
2023-05-06T12:42:56.471Z,51201.16
2023-05-06T12:45:26.766Z,51207.19
2023-05-06T12:47:55.782Z,51231.25
2023-05-06T12:50:44.644Z,51203.16
2023-05-06T12:53:14.218Z,51227.25
2023-05-06T12:55:42.972Z,51217.22
2023-05-06T12:58:17.403Z,51241.28
2023-05-06T13:00:55.825Z,51241.28
2023-05-06T13:03:24.340Z,51217.22
2023-05-06T13:05:52.865Z,51223.22
2023-05-06T13:08:21.252Z,51245.28
2023-05-06T13:10:49.616Z,51243.28
2023-05-06T13:13:29.036Z,51223.22
2023-05-06T13:15:58.773Z,51235.25
2023-05-06T13:18:27.411Z,51227.25
2023-05-06T13:23:52.750Z,51235.25
2023-05-06T13:26:21.461Z,51247.28
2023-05-06T13:28:49.822Z,51227.25
2023-05-06T13:31:20.138Z,51233.25
2023-05-06T13:33:49.059Z,51223.22
2023-05-06T13:36:17.479Z,51249.31
2023-05-06T13:38:45.925Z,51179.09
2023-05-06T13:41:14.570Z,51195.16
2023-05-06T13:43:53.590Z,51187.13
2023-05-06T13:46:23.377Z,51179.09
2023-05-06T13:48:51.845Z,51217.22
2023-05-06T13:51:20.961Z,51179.09
2023-05-06T13:53:51.699Z,51163.06
2023-05-06T13:56:20.102Z,51171.06
2023-05-06T13:58:48.478Z,51130.97
2023-05-06T14:01:17.001Z,51153.03
2023-05-06T14:03:47.307Z,51143.00
2023-05-06T14:06:19.833Z,51159.03
2023-05-06T14:08:48.266Z,51187.13
2023-05-06T14:11:16.782Z,51163.06
2023-05-06T14:13:45.162Z,51189.13
2023-05-06T14:16:32.420Z,51173.09
2023-05-06T14:19:02.337Z,51213.19
2023-05-06T14:21:30.748Z,51193.13
2023-05-06T14:24:00.989Z,51181.09
2023-05-06T14:26:30.022Z,51209.19
2023-05-06T14:28:59.012Z,51189.13
2023-05-06T14:31:27.834Z,51167.06
2023-05-06T14:33:56.701Z,51173.09
2023-05-06T14:36:29.361Z,51179.09
2023-05-06T14:39:04.319Z,51171.06
2023-05-06T14:41:32.876Z,51112.91
2023-05-06T14:44:01.206Z,51130.97
2023-05-06T14:46:34.019Z,51155.03
2023-05-06T14:49:02.877Z,51116.91
2023-05-06T14:57:11.595Z,51104.88
2023-05-06T14:59:42.604Z,51120.94
2023-05-06T15:02:11.181Z,51143.00
2023-05-06T15:04:50.306Z,51141.00
2023-05-06T15:07:18.830Z,51147.00
2023-05-06T15:09:47.167Z,51143.00
2023-05-06T15:12:16.048Z,51169.06
2023-05-06T15:14:53.459Z,51175.09
2023-05-06T15:17:22.137Z,51225.22
2023-05-06T15:19:50.543Z,51211.19
2023-05-06T15:22:18.905Z,51255.31
2023-05-06T15:24:53.390Z,51279.41
2023-05-06T15:27:30.684Z,51277.38
2023-05-06T15:30:04.026Z,51275.38
2023-05-06T15:32:33.853Z,51303.47
2023-05-06T15:35:11.475Z,51295.44
2023-05-06T15:37:40.119Z,51271.38
2023-05-06T15:40:11.854Z,51301.47
2023-05-06T15:42:41.253Z,51301.47
2023-05-06T15:45:21.370Z,51275.38
2023-05-06T15:47:49.815Z,51239.28
2023-05-06T15:50:31.780Z,51289.41
2023-05-06T15:53:02.371Z,51257.31
2023-05-06T15:56:02.420Z,51277.38
2023-05-06T15:58:50.843Z,51277.38
2023-05-06T16:01:25.427Z,51293.44
2023-05-06T16:03:58.346Z,51311.50
2023-05-06T16:06:32.812Z,51291.44
2023-05-06T16:09:01.230Z,51293.44
2023-05-06T16:11:29.611Z,51283.41
2023-05-06T16:13:58.005Z,51345.59
2023-05-06T16:16:27.748Z,51325.53
2023-05-06T16:18:56.250Z,51295.44
2023-05-06T16:21:24.599Z,51307.47
2023-05-06T16:23:53.140Z,51339.56
2023-05-06T16:26:22.100Z,51323.53
2023-05-06T16:28:59.484Z,51339.56
2023-05-06T16:31:30.323Z,51331.53
2023-05-06T16:33:58.982Z,51359.63
2023-05-06T16:36:28.528Z,51305.47
2023-05-06T16:38:57.065Z,51347.59
2023-05-06T16:41:28.510Z,51299.44
2023-05-06T16:44:11.552Z,51347.59
2023-05-06T16:46:41.642Z,51351.59
2023-05-06T16:49:21.153Z,51317.50
2023-05-06T16:51:49.803Z,51357.63
2023-05-06T16:54:18.706Z,51351.59
2023-05-06T16:56:52.219Z,51365.66
2023-05-06T16:59:24.552Z,51343.59
2023-05-06T17:01:54.745Z,51339.56
2023-05-06T17:04:24.567Z,51367.66
2023-05-06T17:06:56.127Z,51375.69
2023-05-06T17:09:27.913Z,51345.59
2023-05-06T17:11:58.559Z,51391.72
2023-05-06T17:14:28.072Z,51389.72
2023-05-06T17:17:02.088Z,51373.66
2023-05-06T17:19:40.435Z,51405.75
2023-05-06T17:22:09.071Z,51359.63
2023-05-06T17:24:37.511Z,51389.72
2023-05-06T17:27:05.917Z,51395.72
2023-05-06T17:29:34.419Z,51391.72
2023-05-06T17:32:04.736Z,51365.66
2023-05-06T17:34:35.345Z,51403.75
2023-05-06T17:37:04.769Z,51365.66
2023-05-06T17:39:33.968Z,51351.59
2023-05-06T17:42:08.565Z,51377.69
2023-05-06T17:44:38.090Z,51351.59
2023-05-06T17:47:08.346Z,51367.66
2023-05-06T17:49:36.962Z,51367.66
2023-05-06T17:52:05.806Z,51365.66
2023-05-06T17:54:36.256Z,51379.69
2023-05-06T17:57:04.793Z,51373.66
2023-05-06T17:59:33.331Z,51391.72
2023-05-06T18:02:01.962Z,51337.56
2023-05-06T18:04:34.125Z,51359.63
2023-05-06T18:07:03.005Z,51385.72
2023-05-06T18:09:32.317Z,51391.72
2023-05-06T18:12:00.956Z,51373.66
2023-05-06T18:17:25.759Z,51423.81
2023-05-06T18:19:55.913Z,51371.66
2023-05-06T18:22:24.387Z,51359.63
2023-05-06T18:25:01.276Z,51397.75
2023-05-06T18:27:32.228Z,51407.78
2023-05-06T18:30:00.808Z,51407.78
2023-05-06T18:32:29.401Z,51393.72
2023-05-06T18:35:03.380Z,51397.75
2023-05-06T18:37:33.050Z,51431.84
2023-05-06T18:40:02.092Z,51423.81
2023-05-06T18:42:33.338Z,51387.72
2023-05-06T18:45:04.769Z,51441.88
2023-05-06T18:47:33.810Z,51415.78
2023-05-06T18:50:04.126Z,51427.84
2023-05-06T18:52:33.501Z,51435.84
2023-05-06T18:55:02.701Z,51417.81
2023-05-06T18:57:40.801Z,51393.72
2023-05-06T19:00:10.054Z,51425.81
2023-05-06T19:02:38.769Z,51395.72
2023-05-06T19:05:09.972Z,51427.84
2023-05-06T19:07:42.905Z,51459.94
2023-05-06T19:10:13.750Z,51427.84
2023-05-06T19:12:42.505Z,51443.88
2023-05-06T19:15:14.005Z,51435.84
2023-05-06T19:17:43.792Z,51457.91
2023-05-06T19:20:14.796Z,51427.84
2023-05-06T19:22:43.814Z,51465.94
2023-05-06T19:25:12.839Z,51441.88
2023-05-06T19:27:41.401Z,51506.06
2023-05-06T19:30:11.028Z,51465.94
2023-05-06T19:32:40.372Z,51477.97
2023-05-06T19:35:09.945Z,51467.94
2023-05-06T19:37:40.185Z,51475.97
2023-05-06T19:40:10.040Z,51463.94
2023-05-06T19:42:38.580Z,51469.97
2023-05-06T19:45:11.678Z,51475.97
2023-05-06T19:47:40.939Z,51475.97
2023-05-06T19:50:10.600Z,51455.91
2023-05-06T19:52:40.884Z,51471.97
2023-05-06T19:55:11.246Z,51469.97
2023-05-06T19:57:40.221Z,51492.03
2023-05-06T20:00:11.589Z,51490.00
2023-05-06T20:02:41.429Z,51463.94
2023-05-06T20:05:10.975Z,51506.06
2023-05-06T20:07:42.097Z,51471.97
2023-05-06T20:10:13.749Z,51508.06
2023-05-06T20:12:42.880Z,51486.00
2023-05-06T20:15:14.509Z,51484.00
2023-05-06T20:17:44.116Z,51492.03
2023-05-06T20:20:13.349Z,51504.06
2023-05-06T20:22:43.480Z,51477.97
2023-05-06T20:25:14.378Z,51492.03
2023-05-06T20:27:43.017Z,51482.00
2023-05-06T20:30:12.314Z,51518.09
2023-05-06T20:32:41.623Z,51512.09
2023-05-06T20:35:11.000Z,51435.84
2023-05-06T20:37:41.211Z,51534.16
2023-05-06T20:40:12.552Z,51490.00
2023-05-06T20:42:41.115Z,51524.13
2023-05-06T20:45:10.455Z,51510.06
2023-05-06T20:47:39.678Z,51498.03
2023-05-06T20:50:08.945Z,51512.09
2023-05-06T20:52:37.791Z,51528.13
2023-05-06T20:55:07.593Z,51520.09
2023-05-06T20:57:43.249Z,51475.97
2023-05-06T21:00:12.853Z,51496.03
2023-05-06T21:02:42.232Z,51496.03
2023-05-06T21:05:12.046Z,51484.00
2023-05-06T21:07:40.943Z,51548.19
2023-05-06T21:10:11.347Z,51518.09
2023-05-06T21:12:47.364Z,51484.00
2023-05-06T21:15:16.057Z,51568.25
2023-05-06T21:17:44.563Z,51536.16
2023-05-06T21:20:14.659Z,51524.13
2023-05-06T21:22:43.348Z,51532.13
2023-05-06T21:25:15.064Z,51504.06
2023-05-06T21:27:44.973Z,51530.13
2023-05-06T21:30:14.199Z,51550.19
2023-05-06T21:32:43.799Z,51550.19
2023-05-06T21:35:12.753Z,51542.16
2023-05-06T21:37:41.534Z,51528.13
2023-05-06T21:40:11.943Z,51532.13
2023-05-06T21:42:40.499Z,51544.19
2023-05-06T21:45:11.512Z,51514.09
2023-05-06T21:47:40.298Z,51574.28
2023-05-06T21:50:10.483Z,51508.06
2023-05-06T21:52:39.550Z,51562.22
2023-05-06T21:55:09.176Z,51544.19
2023-05-06T21:57:38.744Z,51548.19
2023-05-06T22:00:11.788Z,51528.13
2023-05-06T22:02:49.988Z,51560.22
2023-05-06T22:05:24.388Z,51600.34
2023-05-06T22:07:52.924Z,51598.34
2023-05-06T22:10:21.611Z,51578.28
2023-05-06T22:12:51.748Z,51554.22
2023-05-06T22:15:20.318Z,51582.28
2023-05-06T22:17:50.245Z,51558.22
2023-05-06T22:20:19.152Z,51602.34
2023-05-06T22:22:47.692Z,51544.19
2023-05-06T22:25:17.670Z,51574.28
2023-05-06T22:27:46.100Z,51578.28
2023-05-06T22:30:16.173Z,51564.25
2023-05-06T22:32:44.621Z,51576.28
2023-05-06T22:35:14.878Z,51606.38
2023-05-06T22:37:43.445Z,51578.28
2023-05-06T22:40:12.859Z,51590.31
2023-05-06T22:42:41.342Z,51624.41
2023-05-06T22:45:12.124Z,51574.28
2023-05-06T22:47:41.177Z,51612.38
2023-05-06T22:50:10.528Z,51592.31
2023-05-06T22:52:40.406Z,51566.25
2023-05-06T22:55:10.810Z,51594.31
2023-05-06T22:57:39.519Z,51604.34
2023-05-06T23:00:12.301Z,51602.34
2023-05-06T23:02:40.855Z,51578.28
2023-05-06T23:05:10.201Z,51600.34
2023-05-06T23:07:40.492Z,51616.41
2023-05-06T23:10:09.852Z,51586.31
2023-05-06T23:12:38.375Z,51604.34
2023-05-06T23:15:08.560Z,51588.31
2023-05-06T23:17:37.245Z,51582.28
2023-05-06T23:20:06.339Z,51594.31
2023-05-06T23:22:35.680Z,51564.25
2023-05-06T23:25:07.883Z,51558.22
2023-05-06T23:27:38.447Z,51594.31
2023-05-06T23:30:08.586Z,51556.22
2023-05-06T23:32:38.179Z,51556.22
2023-05-06T23:35:07.760Z,51580.28
2023-05-06T23:37:36.522Z,51550.19
2023-05-06T23:40:08.254Z,51590.31
2023-05-06T23:42:36.670Z,51588.31
2023-05-06T23:45:05.861Z,51604.34
2023-05-06T23:47:34.489Z,51592.31
2023-05-06T23:50:03.329Z,51560.22
2023-05-06T23:52:32.084Z,51566.25
2023-05-06T23:55:01.076Z,51580.28
2023-05-06T23:57:33.203Z,51548.19
